createdAt,value
2018-07-03T00:00:48.805Z,42.88
2018-07-03T00:03:17.881Z,41.78
2018-07-03T00:05:47.009Z,42.22
2018-07-03T00:08:16.064Z,43.27
2018-07-03T00:10:45.100Z,43.58
2018-07-03T00:13:14.161Z,43.04
2018-07-03T00:15:43.673Z,43.83
2018-07-03T00:18:12.868Z,44.06
2018-07-03T00:20:42.042Z,43.17
2018-07-03T00:23:11.117Z,42.50
2018-07-03T00:25:40.154Z,42.38
2018-07-03T00:28:09.218Z,42.66
2018-07-03T00:30:38.345Z,41.91
2018-07-03T00:33:07.651Z,42.16
2018-07-03T00:35:36.774Z,43.33
2018-07-03T00:38:06.240Z,43.83
2018-07-03T00:40:35.419Z,43.72
2018-07-03T00:43:04.520Z,43.66
2018-07-03T00:45:33.590Z,44.43
2018-07-03T00:48:02.691Z,44.72
2018-07-03T00:50:38.305Z,45.06
2018-07-03T00:53:07.341Z,45.07
2018-07-03T00:55:37.445Z,45.92
2018-07-03T00:58:06.533Z,45.00
2018-07-03T01:00:36.197Z,46.08
2018-07-03T01:03:05.467Z,46.72
2018-07-03T01:05:34.656Z,46.94
2018-07-03T01:08:03.695Z,46.17
2018-07-03T01:10:32.754Z,46.38
2018-07-03T01:13:01.809Z,46.95
2018-07-03T01:15:30.897Z,46.39
2018-07-03T01:17:59.970Z,47.10
2018-07-03T01:20:29.105Z,46.33
2018-07-03T01:22:58.166Z,46.52
2018-07-03T01:25:27.254Z,47.00
2018-07-03T01:27:56.322Z,47.10
2018-07-03T01:30:25.397Z,47.33
2018-07-03T01:32:54.456Z,47.10
2018-07-03T01:35:23.520Z,46.67
2018-07-03T01:37:52.567Z,47.07
2018-07-03T01:40:21.649Z,47.05
2018-07-03T01:42:50.867Z,46.74
2018-07-03T01:45:20.913Z,46.63
2018-07-03T01:47:50.062Z,47.54
2018-07-03T01:50:19.299Z,47.37
2018-07-03T01:52:48.367Z,48.02
2018-07-03T01:55:17.989Z,47.37
2018-07-03T01:57:47.053Z,48.20
2018-07-03T02:00:16.237Z,47.62
2018-07-03T02:02:45.288Z,47.84
2018-07-03T02:05:14.368Z,48.17
2018-07-03T02:07:43.421Z,48.57
2018-07-03T02:10:12.473Z,47.92
2018-07-03T02:12:41.613Z,48.44
2018-07-03T02:15:10.649Z,49.41
2018-07-03T02:17:39.730Z,49.02
2018-07-03T02:20:08.830Z,48.59
2018-07-03T02:22:37.937Z,49.36
2018-07-03T02:25:07.034Z,48.82
2018-07-03T02:27:36.081Z,49.39
2018-07-03T02:30:05.585Z,49.72
2018-07-03T02:32:34.682Z,48.73
2018-07-03T02:35:03.796Z,49.01
2018-07-03T02:37:32.836Z,49.36
2018-07-03T02:40:01.896Z,49.02
2018-07-03T02:42:30.940Z,49.00
2018-07-03T02:44:59.994Z,49.24
2018-07-03T02:47:29.026Z,49.80
2018-07-03T02:49:58.127Z,49.81
2018-07-03T02:52:27.165Z,49.57
2018-07-03T02:54:56.236Z,50.64
2018-07-03T02:57:25.278Z,50.58
2018-07-03T02:59:54.405Z,50.81
2018-07-03T03:02:23.444Z,50.12
2018-07-03T03:04:52.510Z,50.33
2018-07-03T03:07:21.567Z,51.45
2018-07-03T03:09:50.641Z,51.35
2018-07-03T03:12:19.736Z,50.53
2018-07-03T03:14:50.025Z,50.49
2018-07-03T03:17:20.323Z,50.24
2018-07-03T03:19:49.429Z,50.84
2018-07-03T03:22:18.466Z,50.18
2018-07-03T03:24:47.469Z,51.39
2018-07-03T03:27:16.576Z,50.96
2018-07-03T03:29:45.609Z,50.34
2018-07-03T03:32:14.675Z,50.58
2018-07-03T03:34:43.745Z,50.60
2018-07-03T03:37:12.822Z,51.11
2018-07-03T03:39:41.875Z,51.14
2018-07-03T03:42:10.980Z,51.87
2018-07-03T03:44:40.531Z,51.80
2018-07-03T03:47:09.634Z,51.75
2018-07-03T03:49:38.693Z,51.58
2018-07-03T03:52:07.773Z,51.46
2018-07-03T03:54:37.126Z,51.73
2018-07-03T03:57:06.447Z,51.83
2018-07-03T03:59:35.562Z,51.54
2018-07-03T04:02:07.740Z,52.32
2018-07-03T04:04:37.406Z,51.16
2018-07-03T04:07:06.637Z,50.95
2018-07-03T04:09:35.689Z,51.97
2018-07-03T04:12:04.776Z,51.46
2018-07-03T04:14:33.958Z,51.21
2018-07-03T04:17:03.029Z,52.39
2018-07-03T04:19:32.214Z,52.31
2018-07-03T04:22:01.310Z,52.73
2018-07-03T04:24:30.357Z,53.32
2018-07-03T04:26:59.394Z,53.38
2018-07-03T04:29:28.584Z,53.56
2018-07-03T04:31:57.608Z,53.36
2018-07-03T04:34:26.682Z,52.39
2018-07-03T04:36:55.697Z,51.79
2018-07-03T04:39:25.206Z,52.22
2018-07-03T04:41:54.453Z,51.22
2018-07-03T04:44:23.499Z,51.02
2018-07-03T04:46:52.578Z,51.27
2018-07-03T04:49:21.589Z,51.00
2018-07-03T04:51:50.655Z,51.01
2018-07-03T04:54:19.924Z,50.82
2018-07-03T04:56:49.059Z,50.31
2018-07-03T04:59:18.486Z,50.24
2018-07-03T05:01:47.515Z,49.62
2018-07-03T05:04:16.938Z,49.19
2018-07-03T05:06:46.284Z,49.62
2018-07-03T05:09:15.296Z,48.81
2018-07-03T05:11:44.673Z,49.63
2018-07-03T05:14:13.738Z,49.16
2018-07-03T05:16:42.806Z,48.69
2018-07-03T05:19:11.844Z,48.54
2018-07-03T05:21:41.037Z,47.20
2018-07-03T05:24:10.077Z,48.16
2018-07-03T05:26:39.174Z,47.28
2018-07-03T05:29:08.214Z,47.80
2018-07-03T05:31:37.697Z,47.97
2018-07-03T05:34:07.162Z,47.38
2018-07-03T05:36:36.341Z,47.68
2018-07-03T05:39:08.034Z,45.92
2018-07-03T05:41:37.493Z,45.86
2018-07-03T05:44:06.497Z,45.03
2018-07-03T05:46:35.616Z,44.60
2018-07-03T05:49:04.818Z,44.05
2018-07-03T05:51:34.446Z,42.92
2018-07-03T05:54:04.377Z,43.34
2018-07-03T05:56:33.470Z,43.89
2018-07-03T05:59:02.605Z,42.52
2018-07-03T06:01:32.013Z,42.40
2018-07-03T06:04:01.130Z,41.35
2018-07-03T06:06:30.839Z,41.41
2018-07-03T06:08:59.952Z,40.83
2018-07-03T06:11:29.009Z,41.00
2018-07-03T06:13:58.082Z,41.46
2018-07-03T06:16:27.176Z,41.41
2018-07-03T06:18:56.414Z,41.97
2018-07-03T06:21:25.388Z,42.22
2018-07-03T06:23:55.067Z,42.77
2018-07-03T06:26:24.094Z,42.86
2018-07-03T06:28:53.193Z,42.69
2018-07-03T06:31:22.241Z,42.33
2018-07-03T06:33:51.349Z,41.93
2018-07-03T06:36:20.429Z,41.40
2018-07-03T06:38:49.721Z,42.02
2018-07-03T06:41:18.846Z,41.86
2018-07-03T06:43:48.043Z,41.57
2018-07-03T06:46:17.148Z,41.22
2018-07-03T06:48:46.421Z,40.48
2018-07-03T06:51:15.645Z,40.59
2018-07-03T06:53:44.693Z,40.21
2018-07-03T06:56:13.819Z,39.83
2018-07-03T06:58:42.942Z,39.38
2018-07-03T07:01:12.011Z,39.46
2018-07-03T07:03:41.401Z,39.26
2018-07-03T07:06:10.517Z,38.95
2018-07-03T07:08:39.774Z,38.72
2018-07-03T07:11:08.703Z,38.96
2018-07-03T07:13:38.088Z,38.50
2018-07-03T07:16:07.142Z,38.88
2018-07-03T07:18:36.365Z,38.00
2018-07-03T07:21:05.460Z,37.56
2018-07-03T07:23:34.751Z,37.31
2018-07-03T07:26:03.784Z,38.23
2018-07-03T07:28:32.897Z,37.15
2018-07-03T07:31:02.125Z,37.60
2018-07-03T07:33:31.166Z,36.20
2018-07-03T07:36:00.324Z,36.07
2018-07-03T07:38:29.597Z,35.95
2018-07-03T07:40:58.706Z,34.11
2018-07-03T07:43:27.840Z,34.87
2018-07-03T07:45:59.296Z,35.04
2018-07-03T07:48:28.352Z,34.05
2018-07-03T07:50:57.429Z,34.99
2018-07-03T07:53:26.604Z,34.48
2018-07-03T07:55:55.863Z,33.77
2018-07-03T07:58:24.975Z,33.67
2018-07-03T08:00:54.172Z,33.59
2018-07-03T08:03:23.415Z,33.22
2018-07-03T08:05:52.531Z,33.47
2018-07-03T08:08:21.626Z,33.65
2018-07-03T08:10:50.722Z,32.73
2018-07-03T08:13:19.832Z,33.80
2018-07-03T08:15:48.932Z,33.90
2018-07-03T08:18:18.065Z,33.44
2018-07-03T08:20:47.166Z,33.90
2018-07-03T08:23:16.293Z,33.77
2018-07-03T08:25:45.377Z,33.23
2018-07-03T08:28:14.428Z,32.86
2018-07-03T08:30:43.634Z,33.38
2018-07-03T08:33:13.857Z,32.98
2018-07-03T08:35:43.070Z,31.73
2018-07-03T08:38:12.373Z,31.77
2018-07-03T08:40:41.774Z,31.67
2018-07-03T08:43:10.828Z,31.09
2018-07-03T08:45:39.902Z,31.98
2018-07-03T08:48:08.952Z,30.38
2018-07-03T08:50:38.062Z,30.90
2018-07-03T08:53:07.183Z,30.71
2018-07-03T08:55:36.364Z,31.26
2018-07-03T08:58:05.554Z,30.11
2018-07-03T09:00:35.255Z,29.78
2018-07-03T09:03:04.486Z,30.52
2018-07-03T09:05:33.534Z,30.43
2018-07-03T09:08:02.613Z,29.86
2018-07-03T09:10:31.662Z,29.92
2018-07-03T09:13:00.830Z,29.45
2018-07-03T09:15:30.250Z,28.82
2018-07-03T09:17:59.343Z,29.59
2018-07-03T09:20:28.504Z,28.62
2018-07-03T09:22:57.553Z,28.28
2018-07-03T09:25:26.641Z,28.68
2018-07-03T09:27:55.820Z,27.92
2018-07-03T09:30:24.920Z,28.70
2018-07-03T09:32:54.090Z,28.87
2018-07-03T09:35:23.221Z,27.70
2018-07-03T09:37:52.405Z,29.06
2018-07-03T09:40:21.534Z,28.85
2018-07-03T09:42:51.686Z,28.74
2018-07-03T09:45:20.720Z,28.82
2018-07-03T09:47:49.842Z,28.56
2018-07-03T09:50:18.905Z,28.13
2018-07-03T09:52:48.007Z,27.98
2018-07-03T09:55:17.097Z,28.77
2018-07-03T09:57:46.653Z,26.46
2018-07-03T10:00:20.206Z,27.74
2018-07-03T10:02:49.916Z,27.57
2018-07-03T10:05:19.057Z,27.21
2018-07-03T10:07:48.541Z,26.23
2018-07-03T10:10:17.693Z,26.31
2018-07-03T10:12:46.738Z,26.81
2018-07-03T10:15:15.843Z,26.48
2018-07-03T10:17:44.945Z,26.34
2018-07-03T10:20:14.117Z,24.35
2018-07-03T10:22:43.326Z,25.24
2018-07-03T10:25:12.425Z,25.71
2018-07-03T10:27:41.632Z,25.80
2018-07-03T10:30:10.685Z,25.81
2018-07-03T10:32:39.833Z,25.43
2018-07-03T10:35:08.998Z,24.19
2018-07-03T10:37:38.077Z,25.16
2018-07-03T10:40:07.264Z,25.53
2018-07-03T10:42:36.363Z,24.84
2018-07-03T10:45:05.563Z,24.73
2018-07-03T10:47:34.606Z,24.55
2018-07-03T10:50:03.725Z,24.33
2018-07-03T10:52:32.822Z,24.36
2018-07-03T10:55:01.871Z,25.42
2018-07-03T10:57:31.006Z,24.09
2018-07-03T11:00:00.110Z,24.09
2018-07-03T11:02:29.149Z,24.43
2018-07-03T11:04:58.277Z,23.84
2018-07-03T11:07:27.314Z,23.37
2018-07-03T11:09:56.381Z,23.45
2018-07-03T11:12:26.601Z,23.16
2018-07-03T11:14:55.717Z,24.21
2018-07-03T11:17:24.962Z,23.49
2018-07-03T11:19:54.275Z,22.99
2018-07-03T11:22:23.424Z,23.73
2018-07-03T11:24:52.481Z,23.84
2018-07-03T11:27:21.538Z,24.33
2018-07-03T11:29:51.678Z,24.29
2018-07-03T11:32:20.866Z,24.34
2018-07-03T11:34:50.034Z,23.14
2018-07-03T11:37:20.050Z,22.41
2018-07-03T11:39:49.971Z,23.20
2018-07-03T11:42:19.334Z,22.97
2018-07-03T11:44:48.403Z,22.55
2018-07-03T11:47:17.580Z,22.76
2018-07-03T11:49:46.598Z,22.27
2018-07-03T11:52:15.709Z,21.63
2018-07-03T11:54:44.815Z,22.60
2018-07-03T11:57:13.969Z,21.97
2018-07-03T11:59:43.035Z,21.24
2018-07-03T12:02:12.199Z,20.84
2018-07-03T12:04:41.243Z,21.42
2018-07-03T12:07:10.392Z,21.27
2018-07-03T12:09:39.489Z,21.79
2018-07-03T12:12:08.619Z,20.52
2018-07-03T12:14:38.911Z,20.60
2018-07-03T12:17:08.656Z,20.36
2018-07-03T12:19:38.278Z,21.57
2018-07-03T12:22:07.356Z,21.16
2018-07-03T12:24:36.381Z,21.39
2018-07-03T12:27:05.529Z,21.40
2018-07-03T12:29:34.626Z,20.48
2018-07-03T12:32:03.711Z,21.46
2018-07-03T12:34:32.847Z,21.09
2018-07-03T12:37:02.032Z,20.74
2018-07-03T12:39:31.637Z,20.24
2018-07-03T12:42:00.741Z,19.78
2018-07-03T12:44:29.902Z,20.06
2018-07-03T12:46:59.026Z,20.73
2018-07-03T12:49:28.290Z,19.77
2018-07-03T12:51:57.452Z,20.10
2018-07-03T12:54:26.641Z,19.85
2018-07-03T12:56:55.716Z,20.32
2018-07-03T12:59:25.229Z,19.66
2018-07-03T13:01:54.400Z,20.35
2018-07-03T13:04:23.442Z,19.79
2018-07-03T13:06:52.615Z,19.21
2018-07-03T13:09:21.660Z,19.70
2018-07-03T13:11:50.731Z,20.09
2018-07-03T13:14:19.802Z,19.80
2018-07-03T13:16:48.933Z,19.72
2018-07-03T13:19:18.057Z,19.11
2018-07-03T13:21:47.165Z,19.57
2018-07-03T13:24:16.283Z,20.02
2018-07-03T13:26:45.336Z,19.54
2018-07-03T13:29:14.442Z,19.17
2018-07-03T13:31:43.622Z,19.57
2018-07-03T13:34:12.768Z,18.62
2018-07-03T13:36:41.821Z,19.18
2018-07-03T13:39:11.575Z,20.10
2018-07-03T13:41:40.725Z,19.66
2018-07-03T13:44:10.634Z,20.00
2018-07-03T13:46:39.693Z,19.74
2018-07-03T13:49:08.767Z,18.83
2018-07-03T13:51:37.842Z,19.57
2018-07-03T13:54:06.965Z,19.25
2018-07-03T13:56:36.134Z,19.51
2018-07-03T13:59:05.272Z,19.01
2018-07-03T14:01:34.313Z,18.83
2018-07-03T14:04:03.571Z,18.78
2018-07-03T14:06:32.678Z,18.60
2018-07-03T14:09:01.859Z,18.65
2018-07-03T14:11:30.950Z,18.67
2018-07-03T14:14:00.083Z,18.34
2018-07-03T14:16:29.249Z,17.87
2018-07-03T14:18:58.482Z,17.66
2018-07-03T14:21:27.628Z,17.82
2018-07-03T14:23:56.688Z,18.23
2018-07-03T14:26:25.778Z,17.68
2018-07-03T14:28:54.851Z,17.48
2018-07-03T14:31:24.130Z,17.97
2018-07-03T14:33:53.204Z,18.21
2018-07-03T14:36:22.635Z,19.86
2018-07-03T14:38:51.725Z,19.67
2018-07-03T14:41:20.811Z,19.11
2018-07-03T14:43:49.912Z,19.25
2018-07-03T14:46:19.189Z,18.82
2018-07-03T14:48:48.261Z,18.63
2018-07-03T14:51:18.295Z,19.07
2018-07-03T14:53:47.318Z,17.47
2018-07-03T14:56:16.426Z,17.39
2018-07-03T14:58:45.531Z,17.08
2018-07-03T15:01:14.726Z,17.78
2018-07-03T15:03:44.375Z,18.53
2018-07-03T15:06:13.440Z,17.42
2018-07-03T15:08:42.587Z,17.59
2018-07-03T15:11:11.700Z,17.16
2018-07-03T15:13:40.755Z,17.35
2018-07-03T15:16:10.283Z,18.24
2018-07-03T15:18:44.571Z,17.69
2018-07-03T15:21:13.666Z,17.26
2018-07-03T15:23:42.782Z,17.88
2018-07-03T15:26:11.846Z,17.36
2018-07-03T15:28:40.927Z,17.47
2018-07-03T15:31:10.389Z,17.19
2018-07-03T15:33:39.439Z,17.01
2018-07-03T15:36:08.506Z,17.12
2018-07-03T15:38:37.587Z,17.08
2018-07-03T15:41:06.774Z,17.91
2018-07-03T15:43:35.946Z,17.85
2018-07-03T15:46:05.378Z,17.61
2018-07-03T15:48:34.498Z,18.03
2018-07-03T15:51:03.853Z,17.57
2018-07-03T15:53:32.935Z,17.22
2018-07-03T15:56:01.981Z,18.00
2018-07-03T15:58:31.196Z,18.13
2018-07-03T16:01:00.281Z,18.75
2018-07-03T16:05:42.631Z,18.04
2018-07-03T16:08:38.900Z,17.62
2018-07-03T16:11:07.937Z,17.72
2018-07-03T16:13:37.066Z,17.79
2018-07-03T16:16:06.117Z,17.76
2018-07-03T16:18:35.633Z,17.08
2018-07-03T16:21:05.339Z,16.16
2018-07-03T16:23:34.503Z,16.61
2018-07-03T16:26:04.358Z,17.10
2018-07-03T16:28:38.061Z,16.55
2018-07-03T16:31:23.048Z,16.77
2018-07-03T16:33:58.670Z,17.58
2018-07-03T16:36:45.054Z,17.69
2018-07-03T16:39:15.960Z,18.22
2018-07-03T16:41:46.633Z,19.05
2018-07-03T16:44:16.636Z,17.93
2018-07-03T16:46:45.805Z,17.58
2018-07-03T16:49:14.833Z,17.74
2018-07-03T16:51:43.971Z,17.01
2018-07-03T16:54:13.114Z,16.68
2018-07-03T16:56:42.214Z,16.83
2018-07-03T16:59:11.543Z,17.42
2018-07-03T17:01:40.610Z,16.91
2018-07-03T17:04:09.720Z,17.29
2018-07-03T17:06:39.476Z,16.85
2018-07-03T17:09:10.340Z,17.59
2018-07-03T17:11:39.664Z,17.92
2018-07-03T17:14:10.258Z,18.79
2018-07-03T17:16:39.749Z,18.83
2018-07-03T17:19:14.151Z,19.89
2018-07-03T17:21:43.266Z,19.31
2018-07-03T17:24:12.841Z,19.32
2018-07-03T17:26:41.901Z,19.02
2018-07-03T17:29:11.044Z,20.43
2018-07-03T17:31:40.126Z,19.62
2018-07-03T17:34:09.195Z,19.64
2018-07-03T17:36:38.306Z,21.25
2018-07-03T17:39:14.555Z,20.75
2018-07-03T17:41:55.378Z,20.63
2018-07-03T17:44:35.082Z,21.18
2018-07-03T17:47:04.251Z,21.54
2018-07-03T17:49:33.352Z,20.71
2018-07-03T17:52:02.563Z,20.80
2018-07-03T17:54:31.659Z,21.53
2018-07-03T17:57:00.722Z,21.39
2018-07-03T17:59:29.917Z,22.62
2018-07-03T18:01:59.091Z,21.24
2018-07-03T18:04:28.166Z,22.05
2018-07-03T18:06:57.335Z,23.36
2018-07-03T18:09:26.520Z,22.11
2018-07-03T18:11:55.669Z,22.06
2018-07-03T18:14:25.126Z,20.77
2018-07-03T18:16:54.226Z,22.94
2018-07-03T18:19:28.408Z,22.12
2018-07-03T18:21:57.509Z,22.90
2018-07-03T18:24:26.574Z,22.22
2018-07-03T18:26:55.748Z,22.51
2018-07-03T18:29:25.285Z,22.96
2018-07-03T18:31:54.329Z,23.55
2018-07-03T18:34:23.728Z,25.11
2018-07-03T18:36:52.850Z,25.50
2018-07-03T18:39:21.980Z,25.51
2018-07-03T18:41:51.218Z,24.97
2018-07-03T18:44:20.729Z,25.41
2018-07-03T18:46:49.827Z,25.17
2018-07-03T18:49:18.863Z,26.27
2018-07-03T18:51:47.961Z,25.29
2018-07-03T18:54:17.064Z,25.47
2018-07-03T18:56:46.347Z,25.35
2018-07-03T18:59:15.424Z,25.47
2018-07-03T19:01:44.600Z,25.04
2018-07-03T19:04:13.874Z,25.80
2018-07-03T19:06:43.123Z,26.19
2018-07-03T19:09:12.243Z,28.78
2018-07-03T19:11:41.358Z,29.46
2018-07-03T19:14:10.455Z,30.09
2018-07-03T19:16:39.594Z,31.68
2018-07-03T19:19:08.760Z,31.08
2018-07-03T19:21:37.915Z,31.49
2018-07-03T19:24:07.125Z,30.56
2018-07-03T19:26:36.201Z,30.51
2018-07-03T19:29:05.442Z,31.17
2018-07-03T19:31:34.578Z,31.47
2018-07-03T19:34:03.773Z,31.48
2018-07-03T19:36:32.928Z,31.62
2018-07-03T19:39:02.121Z,32.31
2018-07-03T19:41:31.223Z,32.39
2018-07-03T19:44:00.383Z,34.15
2018-07-03T19:46:29.514Z,34.35
2018-07-03T19:48:58.625Z,34.24
2018-07-03T19:51:27.786Z,34.21
2018-07-03T19:53:56.964Z,34.01
2018-07-03T19:56:26.189Z,34.97
2018-07-03T19:58:55.256Z,35.95
2018-07-03T20:01:24.370Z,34.23
2018-07-03T20:03:54.006Z,35.48
2018-07-03T20:06:23.132Z,37.26
2018-07-03T20:08:52.436Z,36.58
2018-07-03T20:11:21.550Z,35.43
2018-07-03T20:13:50.786Z,37.13
2018-07-03T20:16:19.875Z,35.94
2018-07-03T20:18:49.368Z,37.00
2018-07-03T20:21:18.414Z,37.28
2018-07-03T20:23:47.797Z,37.47
2018-07-03T20:26:16.921Z,38.79
2018-07-03T20:28:46.054Z,38.69
2018-07-03T20:31:15.103Z,38.82
2018-07-03T20:33:45.172Z,38.67
2018-07-03T20:36:14.602Z,38.96
2018-07-03T20:38:43.813Z,39.62
2018-07-03T20:41:12.944Z,40.32
2018-07-03T20:43:42.662Z,40.48
2018-07-03T20:46:11.808Z,41.18
2018-07-03T20:48:40.879Z,41.24
2018-07-03T20:51:10.739Z,41.63
2018-07-03T20:53:39.803Z,41.65
2018-07-03T20:56:08.955Z,40.88
2018-07-03T20:58:38.168Z,40.01
2018-07-03T21:01:07.375Z,40.88
2018-07-03T21:03:36.459Z,41.15
2018-07-03T21:06:05.950Z,40.46
2018-07-03T21:08:34.922Z,41.19
2018-07-03T21:11:04.252Z,41.20
2018-07-03T21:13:33.301Z,41.66
2018-07-03T21:16:02.460Z,41.31
2018-07-03T21:18:32.150Z,42.00
2018-07-03T21:21:01.363Z,41.03
2018-07-03T21:23:30.444Z,41.89
2018-07-03T21:25:59.578Z,41.32
2018-07-03T21:28:28.766Z,41.19
2018-07-03T21:30:57.811Z,40.48
2018-07-03T21:33:26.909Z,40.44
2018-07-03T21:35:56.019Z,40.92
2018-07-03T21:38:25.148Z,41.40
2018-07-03T21:40:54.242Z,41.33
2018-07-03T21:43:23.268Z,40.17
2018-07-03T21:45:52.342Z,40.51
2018-07-03T21:48:21.448Z,40.46
2018-07-03T21:50:50.537Z,39.91
2018-07-03T21:53:19.614Z,41.74
2018-07-03T21:55:48.761Z,42.26
2018-07-03T21:58:17.882Z,42.11
2018-07-03T22:00:46.962Z,42.93
2018-07-03T22:03:15.994Z,42.39
2018-07-03T22:05:45.115Z,42.92
2018-07-03T22:08:14.168Z,44.06
2018-07-03T22:10:43.270Z,44.34
2018-07-03T22:13:12.380Z,44.02
2018-07-03T22:15:41.454Z,43.77
2018-07-03T22:18:10.510Z,44.85
2018-07-03T22:20:39.565Z,44.70
2018-07-03T22:23:08.606Z,45.20
2018-07-03T22:25:37.660Z,45.70
2018-07-03T22:28:06.717Z,44.68
2018-07-03T22:30:35.769Z,46.03
2018-07-03T22:33:04.803Z,45.14
2018-07-03T22:35:33.882Z,45.98
2018-07-03T22:38:02.928Z,45.10
2018-07-03T22:40:32.165Z,45.70
2018-07-03T22:43:01.251Z,45.49
2018-07-03T22:45:31.305Z,46.54
2018-07-03T22:48:00.341Z,44.88
2018-07-03T22:50:29.424Z,45.52
2018-07-03T22:52:58.674Z,45.72
2018-07-03T22:55:27.736Z,45.92
2018-07-03T22:57:56.742Z,45.59
2018-07-03T23:00:25.896Z,45.88
2018-07-03T23:02:54.980Z,47.12
2018-07-03T23:05:24.021Z,46.92
2018-07-03T23:07:53.179Z,46.73
2018-07-03T23:10:22.161Z,47.03
2018-07-03T23:12:51.255Z,47.24
2018-07-03T23:15:20.289Z,46.81
2018-07-03T23:17:49.383Z,47.06
2018-07-03T23:20:18.458Z,47.62
2018-07-03T23:22:47.510Z,47.85
2018-07-03T23:25:16.566Z,47.53
2018-07-03T23:27:45.597Z,47.28
2018-07-03T23:30:15.131Z,48.05
2018-07-03T23:32:44.244Z,48.19
2018-07-03T23:35:13.275Z,48.16
2018-07-03T23:37:42.372Z,47.29
2018-07-03T23:40:11.446Z,48.44
2018-07-03T23:42:40.594Z,48.89
2018-07-03T23:45:09.637Z,48.63
2018-07-03T23:47:49.860Z,48.82
2018-07-03T23:50:30.270Z,47.72
2018-07-03T23:53:10.629Z,49.12
2018-07-03T23:55:51.201Z,48.97
2018-07-03T23:58:31.570Z,49.17
